createdAt,value
2018-11-01T00:01:58.053Z,7.90
2018-11-01T00:04:26.189Z,7.27
2018-11-01T00:06:54.318Z,6.97
2018-11-01T00:09:22.487Z,6.47
2018-11-01T00:11:50.649Z,7.73
2018-11-01T00:14:18.795Z,8.50
2018-11-01T00:16:46.955Z,9.93
2018-11-01T00:19:15.071Z,9.33
2018-11-01T00:21:43.209Z,6.20
2018-11-01T00:24:11.339Z,6.17
2018-11-01T00:26:39.443Z,7.33
2018-11-01T00:29:07.585Z,9.57
2018-11-01T00:31:35.733Z,7.53
2018-11-01T00:34:03.859Z,7.67
2018-11-01T00:36:32.003Z,7.80
2018-11-01T00:39:00.104Z,6.67
2018-11-01T00:41:28.279Z,7.50
2018-11-01T00:43:56.420Z,10.70
2018-11-01T00:46:24.575Z,9.53
2018-11-01T00:48:52.682Z,6.67
2018-11-01T00:51:20.786Z,6.63
2018-11-01T00:53:48.871Z,6.93
2018-11-01T00:56:16.959Z,7.27
2018-11-01T00:58:45.090Z,7.77
2018-11-01T01:01:13.238Z,8.33
2018-11-01T01:03:41.355Z,8.13
2018-11-01T01:06:09.467Z,7.17
2018-11-01T01:08:37.600Z,7.53
2018-11-01T01:11:05.740Z,10.47
2018-11-01T01:13:33.975Z,7.17
2018-11-01T01:16:02.115Z,10.23
2018-11-01T01:18:30.261Z,5.90
2018-11-01T01:20:58.412Z,6.07
2018-11-01T01:23:26.539Z,6.57
2018-11-01T01:25:54.658Z,7.73
2018-11-01T01:28:23.349Z,7.93
2018-11-01T01:30:51.443Z,8.77
2018-11-01T01:33:19.531Z,9.23
2018-11-01T01:35:47.674Z,7.47
2018-11-01T01:38:15.823Z,7.53
2018-11-01T01:40:43.923Z,7.03
2018-11-01T01:43:12.037Z,7.90
2018-11-01T01:45:40.160Z,11.30
2018-11-01T01:48:08.272Z,9.33
2018-11-01T01:50:36.406Z,9.97
2018-11-01T01:53:04.483Z,6.87
2018-11-01T01:55:32.598Z,7.80
2018-11-01T01:58:00.753Z,7.27
2018-11-01T02:00:28.858Z,7.70
2018-11-01T02:02:57.018Z,7.87
2018-11-01T02:05:25.097Z,7.97
2018-11-01T02:07:53.235Z,6.20
2018-11-01T02:10:21.416Z,9.13
2018-11-01T02:12:49.567Z,8.27
2018-11-01T02:15:19.113Z,9.60
2018-11-01T02:17:47.299Z,7.47
2018-11-01T02:20:16.619Z,7.37
2018-11-01T02:22:45.099Z,11.73
2018-11-01T02:25:13.223Z,7.10
2018-11-01T02:27:46.900Z,8.80
2018-11-01T02:30:16.118Z,10.93
2018-11-01T02:32:44.834Z,7.17
2018-11-01T02:35:14.224Z,7.57
2018-11-01T02:37:42.766Z,8.10
2018-11-01T02:40:11.514Z,6.87
2018-11-01T02:42:40.057Z,8.07
2018-11-01T02:45:08.567Z,8.80
2018-11-01T02:47:36.984Z,8.87
2018-11-01T02:50:05.352Z,6.47
2018-11-01T02:52:33.811Z,6.23
2018-11-01T02:55:02.161Z,8.60
2018-11-01T02:57:30.266Z,7.83
2018-11-01T02:59:58.401Z,9.73
2018-11-01T03:02:26.526Z,7.57
2018-11-01T03:04:54.619Z,8.27
2018-11-01T03:07:22.785Z,7.57
2018-11-01T03:09:50.887Z,7.10
2018-11-01T03:12:19.005Z,6.90
2018-11-01T03:14:47.075Z,9.60
2018-11-01T03:17:15.318Z,7.50
2018-11-01T03:19:43.391Z,8.23
2018-11-01T03:22:11.528Z,8.67
2018-11-01T03:24:39.711Z,7.17
2018-11-01T03:27:07.872Z,9.73
2018-11-01T03:29:36.039Z,8.67
2018-11-01T03:32:04.523Z,8.93
2018-11-01T03:34:32.698Z,8.27
2018-11-01T03:37:00.931Z,9.27
2018-11-01T03:39:29.106Z,8.43
2018-11-01T03:41:57.224Z,9.00
2018-11-01T03:44:25.356Z,7.83
2018-11-01T03:46:53.466Z,7.57
2018-11-01T03:49:21.626Z,8.60
2018-11-01T03:51:49.807Z,9.17
2018-11-01T03:54:17.975Z,6.43
2018-11-01T03:56:46.058Z,6.70
2018-11-01T03:59:14.154Z,8.03
2018-11-01T04:01:42.346Z,7.20
2018-11-01T04:04:10.505Z,8.17
2018-11-01T04:06:38.598Z,7.17
2018-11-01T04:09:07.692Z,6.77
2018-11-01T04:11:35.849Z,7.87
2018-11-01T04:14:04.011Z,8.93
2018-11-01T04:16:32.143Z,11.17
2018-11-01T04:19:00.334Z,7.63
2018-11-01T04:21:28.440Z,7.77
2018-11-01T04:23:56.551Z,6.47
2018-11-01T04:26:24.678Z,6.53
2018-11-01T04:28:52.840Z,7.23
2018-11-01T04:31:21.038Z,6.13
2018-11-01T04:33:49.278Z,7.60
2018-11-01T04:36:17.302Z,6.67
2018-11-01T04:38:45.440Z,7.73
2018-11-01T04:41:13.598Z,9.77
2018-11-01T04:43:41.707Z,7.03
2018-11-01T04:46:09.856Z,5.50
2018-11-01T04:48:37.946Z,7.80
2018-11-01T04:51:06.068Z,6.17
2018-11-01T04:53:34.197Z,6.77
2018-11-01T04:56:02.271Z,5.60
2018-11-01T04:58:30.408Z,6.47
2018-11-01T05:00:58.515Z,5.17
2018-11-01T05:03:26.725Z,5.83
2018-11-01T05:05:54.842Z,6.53
2018-11-01T05:08:22.993Z,9.27
2018-11-01T05:10:51.080Z,5.77
2018-11-01T05:13:19.204Z,5.97
2018-11-01T05:15:47.324Z,6.23
2018-11-01T05:18:15.446Z,6.47
2018-11-01T05:20:43.557Z,4.80
2018-11-01T05:23:11.729Z,9.70
2018-11-01T05:25:39.879Z,6.70
2018-11-01T05:28:07.994Z,4.40
2018-11-01T05:30:36.131Z,7.17
2018-11-01T05:33:04.401Z,6.57
2018-11-01T05:35:32.508Z,6.57
2018-11-01T05:38:00.652Z,5.10
2018-11-01T05:40:28.764Z,5.67
2018-11-01T05:42:56.882Z,6.70
2018-11-01T05:45:24.982Z,9.57
2018-11-01T05:47:53.089Z,7.27
2018-11-01T05:50:21.211Z,6.10
2018-11-01T05:52:49.373Z,8.17
2018-11-01T05:55:17.482Z,4.50
2018-11-01T05:57:45.627Z,5.07
2018-11-01T06:00:14.319Z,5.83
2018-11-01T06:02:45.904Z,8.00
2018-11-01T06:05:13.999Z,4.20
2018-11-01T06:07:46.737Z,5.40
2018-11-01T06:10:15.609Z,8.00
2018-11-01T06:12:43.687Z,7.47
2018-11-01T06:15:12.053Z,6.47
2018-11-01T06:17:40.676Z,6.03
2018-11-01T06:20:09.447Z,7.27
2018-11-01T06:22:37.579Z,5.23
2018-11-01T06:25:06.295Z,6.33
2018-11-01T06:27:34.418Z,4.73
2018-11-01T06:30:02.524Z,4.60
2018-11-01T06:32:30.614Z,4.70
2018-11-01T06:35:01.149Z,4.27
2018-11-01T06:37:29.350Z,10.73
2018-11-01T06:39:57.485Z,4.17
2018-11-01T06:42:25.899Z,5.50
2018-11-01T06:44:54.083Z,5.13
2018-11-01T06:47:22.147Z,4.93
2018-11-01T06:49:50.259Z,6.37
2018-11-01T06:52:18.379Z,4.37
2018-11-01T06:54:46.527Z,5.40
2018-11-01T06:57:14.625Z,4.70
2018-11-01T06:59:42.864Z,4.13
2018-11-01T07:02:11.865Z,3.73
2018-11-01T07:04:40.039Z,6.07
2018-11-01T07:07:08.146Z,4.40
2018-11-01T07:09:36.273Z,3.77
2018-11-01T07:12:04.408Z,4.97
2018-11-01T07:14:32.542Z,7.30
2018-11-01T07:17:00.702Z,5.07
2018-11-01T07:19:28.845Z,3.47
2018-11-01T07:21:57.008Z,5.63
2018-11-01T07:24:25.093Z,6.63
2018-11-01T07:26:53.730Z,3.70
2018-11-01T07:29:21.862Z,7.10
2018-11-01T07:31:49.985Z,3.37
2018-11-01T07:34:18.119Z,3.20
2018-11-01T07:36:46.323Z,5.43
2018-11-01T07:39:14.568Z,4.27
2018-11-01T07:41:42.669Z,5.87
2018-11-01T07:44:10.765Z,3.70
2018-11-01T07:46:38.953Z,5.20
2018-11-01T07:49:07.585Z,7.50
2018-11-01T07:51:35.899Z,5.77
2018-11-01T07:54:04.219Z,4.67
2018-11-01T07:56:32.360Z,5.23
2018-11-01T07:59:00.515Z,3.87
2018-11-01T08:01:28.706Z,3.77
2018-11-01T08:03:56.827Z,5.47
2018-11-01T08:06:24.981Z,3.70
2018-11-01T08:08:53.085Z,3.30
2018-11-01T08:11:21.222Z,3.47
2018-11-01T08:13:49.357Z,3.70
2018-11-01T08:16:17.503Z,4.23
2018-11-01T08:18:45.573Z,3.53
2018-11-01T08:21:13.818Z,6.33
2018-11-01T08:23:41.844Z,5.27
2018-11-01T08:26:10.054Z,3.50
2018-11-01T08:28:38.168Z,4.37
2018-11-01T08:31:06.282Z,4.40
2018-11-01T08:33:34.504Z,4.33
2018-11-01T08:36:02.632Z,6.07
2018-11-01T08:38:30.739Z,3.43
2018-11-01T08:40:58.842Z,4.07
2018-11-01T08:43:26.951Z,3.07
2018-11-01T08:45:55.084Z,6.23
2018-11-01T08:48:23.193Z,3.67
2018-11-01T08:50:51.340Z,5.30
2018-11-01T08:53:19.509Z,4.57
2018-11-01T08:55:47.683Z,6.23
2018-11-01T08:58:15.823Z,5.60
2018-11-01T09:00:43.925Z,4.47
2018-11-01T09:03:12.058Z,3.40
2018-11-01T09:05:40.146Z,4.30
2018-11-01T09:08:08.403Z,5.60
2018-11-01T09:10:36.584Z,4.03
2018-11-01T09:13:04.615Z,6.00
2018-11-01T09:15:32.754Z,4.67
2018-11-01T09:18:00.884Z,4.27
2018-11-01T09:20:28.985Z,5.03
2018-11-01T09:22:57.108Z,3.80
2018-11-01T09:25:25.226Z,5.50
2018-11-01T09:27:53.398Z,2.90
2018-11-01T09:30:21.555Z,5.23
2018-11-01T09:32:49.753Z,4.10
2018-11-01T09:35:17.837Z,3.37
2018-11-01T09:37:46.024Z,4.27
2018-11-01T09:40:15.403Z,6.00
2018-11-01T09:42:44.160Z,6.00
2018-11-01T09:45:12.778Z,4.37
2018-11-01T09:47:41.219Z,5.77
2018-11-01T09:50:09.797Z,3.10
2018-11-01T09:52:38.155Z,4.33
2018-11-01T09:55:06.411Z,4.63
2018-11-01T09:57:34.548Z,5.73
2018-11-01T10:00:02.802Z,6.73
2018-11-01T10:02:30.960Z,7.20
2018-11-01T10:04:59.072Z,5.87
2018-11-01T10:07:27.148Z,4.40
2018-11-01T10:09:55.254Z,4.47
2018-11-01T10:12:23.358Z,6.70
2018-11-01T10:14:51.561Z,4.40
2018-11-01T10:17:20.134Z,4.77
2018-11-01T10:19:47.820Z,4.97
2018-11-01T10:22:16.149Z,4.40
2018-11-01T10:24:44.240Z,8.27
2018-11-01T10:27:19.520Z,4.87
2018-11-01T10:29:40.447Z,5.43
2018-11-01T10:32:08.559Z,4.43
2018-11-01T10:34:36.674Z,4.00
2018-11-01T10:37:04.813Z,4.20
2018-11-01T10:39:32.920Z,6.43
2018-11-01T10:42:01.029Z,5.80
2018-11-01T10:44:29.194Z,6.47
2018-11-01T10:46:57.438Z,7.73
2018-11-01T10:49:25.522Z,5.67
2018-11-01T10:51:53.616Z,8.13
2018-11-01T10:54:21.870Z,5.10
2018-11-01T10:56:50.003Z,5.23
2018-11-01T10:59:18.412Z,6.83
2018-11-01T11:01:51.843Z,7.50
2018-11-01T11:04:19.938Z,3.37
2018-11-01T11:06:48.093Z,5.50
2018-11-01T11:09:16.194Z,3.23
2018-11-01T11:11:44.348Z,4.27
2018-11-01T11:14:12.535Z,4.67
2018-11-01T11:16:40.633Z,3.47
2018-11-01T11:19:08.785Z,4.20
2018-11-01T11:21:36.921Z,3.60
2018-11-01T11:24:05.060Z,7.03
2018-11-01T11:26:33.194Z,3.00
2018-11-01T11:29:01.312Z,4.03
2018-11-01T11:31:29.406Z,3.40
2018-11-01T11:33:57.506Z,3.00
2018-11-01T11:36:25.662Z,2.90
2018-11-01T11:38:53.790Z,6.17
2018-11-01T11:41:21.917Z,4.40
2018-11-01T11:43:50.046Z,3.43
2018-11-01T11:46:18.250Z,3.87
2018-11-01T11:48:46.377Z,2.77
2018-11-01T11:51:14.671Z,3.10
2018-11-01T11:53:42.752Z,4.43
2018-11-01T11:56:10.935Z,5.40
2018-11-01T11:58:39.034Z,3.00
2018-11-01T12:01:07.208Z,3.57
2018-11-01T12:03:35.338Z,4.00
2018-11-01T12:06:03.525Z,4.20
2018-11-01T12:08:31.551Z,2.70
2018-11-01T12:10:59.644Z,3.10
2018-11-01T12:13:27.789Z,3.23
2018-11-01T12:15:55.887Z,3.70
2018-11-01T12:18:24.007Z,4.10
2018-11-01T12:20:52.094Z,3.47
2018-11-01T12:23:20.207Z,2.83
2018-11-01T12:25:48.288Z,3.80
2018-11-01T12:28:16.469Z,3.77
2018-11-01T12:30:44.563Z,3.30
2018-11-01T12:33:12.651Z,3.77
2018-11-01T12:35:40.922Z,4.43
2018-11-01T12:38:08.952Z,4.40
2018-11-01T12:40:37.059Z,4.33
2018-11-01T12:43:05.401Z,4.00
2018-11-01T12:45:33.567Z,4.57
2018-11-01T12:48:01.678Z,4.93
2018-11-01T12:50:29.744Z,3.13
2018-11-01T12:52:57.885Z,4.47
2018-11-01T12:55:25.961Z,4.87
2018-11-01T12:57:54.062Z,5.37
2018-11-01T13:00:22.179Z,4.80
2018-11-01T13:02:50.248Z,4.30
2018-11-01T13:05:18.323Z,4.57
2018-11-01T13:07:46.533Z,5.13
2018-11-01T13:10:14.704Z,4.50
2018-11-01T13:12:42.820Z,5.43
2018-11-01T13:15:11.700Z,5.03
2018-11-01T13:17:39.873Z,4.00
2018-11-01T13:20:08.282Z,3.50
2018-11-01T13:22:36.454Z,6.27
2018-11-01T13:25:04.639Z,4.20
2018-11-01T13:27:32.742Z,3.93
2018-11-01T13:30:00.841Z,6.13
2018-11-01T13:32:28.929Z,5.30
2018-11-01T13:34:57.304Z,4.57
2018-11-01T13:37:25.451Z,7.50
2018-11-01T13:39:53.695Z,8.23
2018-11-01T13:42:21.692Z,5.03
2018-11-01T13:44:49.803Z,5.37
2018-11-01T13:47:18.030Z,9.20
2018-11-01T13:49:46.091Z,7.13
2018-11-01T13:52:14.282Z,3.43
2018-11-01T13:54:42.416Z,4.13
2018-11-01T13:57:10.529Z,4.23
2018-11-01T13:59:38.957Z,3.47
2018-11-01T14:02:06.837Z,3.10
2018-11-01T14:04:35.026Z,5.37
2018-11-01T14:07:03.211Z,4.77
2018-11-01T14:09:31.374Z,6.53
2018-11-01T14:11:59.457Z,4.73
2018-11-01T14:14:27.992Z,2.70
2018-11-01T14:16:55.781Z,5.23
2018-11-01T14:19:23.877Z,5.03
2018-11-01T14:21:52.026Z,4.67
2018-11-01T14:24:20.117Z,5.10
2018-11-01T14:26:48.278Z,4.70
2018-11-01T14:29:16.393Z,3.63
2018-11-01T14:31:44.584Z,3.83
2018-11-01T14:34:12.740Z,3.63
2018-11-01T14:36:40.872Z,5.77
2018-11-01T14:39:09.731Z,4.27
2018-11-01T14:41:37.862Z,4.03
2018-11-01T14:44:06.154Z,4.23
2018-11-01T14:46:34.393Z,4.67
2018-11-01T14:49:02.673Z,4.17
2018-11-01T14:51:30.791Z,4.20
2018-11-01T14:53:59.721Z,3.10
2018-11-01T14:56:28.674Z,3.97
2018-11-01T14:58:57.770Z,3.27
2018-11-01T15:01:24.226Z,3.90
2018-11-01T15:03:52.366Z,3.97
2018-11-01T15:06:20.470Z,4.60
2018-11-01T15:08:55.202Z,6.67
2018-11-01T15:11:23.335Z,4.33
2018-11-01T15:13:51.542Z,5.97
2018-11-01T15:16:19.690Z,3.80
2018-11-01T15:18:47.949Z,5.33
2018-11-01T15:21:16.756Z,5.27
2018-11-01T15:23:45.805Z,6.93
2018-11-01T15:26:14.447Z,5.47
2018-11-01T15:28:42.549Z,6.53
2018-11-01T15:31:10.793Z,4.93
2018-11-01T15:33:39.574Z,4.13
2018-11-01T15:36:07.678Z,4.57
2018-11-01T15:38:36.392Z,6.97
2018-11-01T15:41:10.598Z,11.87
2018-11-01T15:43:38.932Z,4.77
2018-11-01T15:46:10.965Z,6.77
2018-11-01T15:48:39.766Z,7.07
2018-11-01T15:51:09.886Z,4.43
2018-11-01T15:53:38.635Z,5.17
2018-11-01T15:56:07.077Z,4.77
2018-11-01T15:58:35.274Z,5.97
2018-11-01T16:01:05.599Z,6.17
2018-11-01T16:03:34.449Z,5.23
2018-11-01T16:06:03.264Z,5.07
2018-11-01T16:08:31.609Z,4.40
2018-11-01T16:10:59.883Z,6.93
2018-11-01T16:13:28.234Z,4.77
2018-11-01T16:15:56.434Z,6.20
2018-11-01T16:18:24.704Z,8.27
2018-11-01T16:20:52.919Z,4.80
2018-11-01T16:23:21.391Z,5.50
2018-11-01T16:25:51.856Z,9.73
2018-11-01T16:28:20.128Z,6.60
2018-11-01T16:30:49.431Z,16.23
2018-11-01T16:33:17.658Z,11.73
2018-11-01T16:35:45.869Z,11.90
2018-11-01T16:38:14.203Z,13.00
2018-11-01T16:40:42.522Z,11.63
2018-11-01T16:43:11.259Z,8.73
2018-11-01T16:45:39.381Z,9.40
2018-11-01T16:48:07.538Z,11.17
2018-11-01T16:50:35.778Z,11.43
2018-11-01T16:53:04.125Z,14.10
2018-11-01T16:55:32.289Z,10.60
2018-11-01T16:58:00.577Z,12.20
2018-11-01T17:00:28.913Z,12.27
2018-11-01T17:02:57.003Z,15.60
2018-11-01T17:05:25.298Z,14.20
2018-11-01T17:07:53.509Z,17.23
2018-11-01T17:10:21.728Z,13.73
2018-11-01T17:12:49.953Z,12.73
2018-11-01T17:15:18.333Z,12.37
2018-11-01T17:17:46.454Z,13.20
2018-11-01T17:20:14.720Z,12.10
2018-11-01T17:22:43.344Z,10.23
2018-11-01T17:25:11.957Z,12.57
2018-11-01T17:27:40.070Z,9.27
2018-11-01T17:30:08.676Z,11.03
2018-11-01T17:32:54.777Z,9.57
2018-11-01T17:35:23.035Z,10.47
2018-11-01T17:37:51.237Z,10.30
2018-11-01T17:40:19.415Z,11.30
2018-11-01T17:42:47.582Z,12.87
2018-11-01T17:45:15.888Z,12.67
2018-11-01T17:47:44.143Z,10.80
2018-11-01T17:50:13.930Z,10.07
2018-11-01T17:52:42.774Z,10.70
2018-11-01T17:55:11.063Z,9.83
2018-11-01T17:57:39.838Z,8.87
2018-11-01T18:00:09.524Z,8.70
2018-11-01T18:02:38.071Z,6.77
2018-11-01T18:05:06.803Z,8.93
2018-11-01T18:07:35.010Z,7.27
2018-11-01T18:10:03.300Z,7.63
2018-11-01T18:12:31.570Z,6.67
2018-11-01T18:14:59.830Z,7.77
2018-11-01T18:17:28.106Z,8.73
2018-11-01T18:19:56.393Z,7.77
2018-11-01T18:22:24.756Z,6.20
2018-11-01T18:24:52.938Z,8.23
2018-11-01T18:27:21.211Z,11.03
2018-11-01T18:29:49.537Z,7.10
2018-11-01T18:32:17.814Z,6.30
2018-11-01T18:34:46.071Z,5.90
2018-11-01T18:37:14.263Z,6.37
2018-11-01T18:39:42.554Z,6.03
2018-11-01T18:42:10.838Z,7.30
2018-11-01T18:44:39.163Z,7.67
2018-11-01T18:47:07.878Z,6.70
2018-11-01T18:49:36.144Z,7.00
2018-11-01T18:52:04.372Z,7.77
2018-11-01T18:54:32.676Z,7.70
2018-11-01T18:57:00.808Z,7.77
2018-11-01T18:59:29.001Z,7.93
2018-11-01T19:01:57.292Z,9.70
2018-11-01T19:04:25.467Z,8.40
2018-11-01T19:06:53.940Z,9.93
2018-11-01T19:09:22.056Z,8.70
2018-11-01T19:11:50.273Z,10.67
2018-11-01T19:14:18.513Z,8.50
2018-11-01T19:16:46.780Z,7.60
2018-11-01T19:19:15.183Z,8.83
2018-11-01T19:21:43.804Z,8.17
2018-11-01T19:24:11.995Z,10.40
2018-11-01T19:26:40.278Z,11.13
2018-11-01T19:29:08.470Z,12.30
2018-11-01T19:31:36.645Z,9.33
2018-11-01T19:34:04.994Z,11.13
2018-11-01T19:36:33.164Z,10.20
2018-11-01T19:39:01.385Z,9.23
2018-11-01T19:41:29.596Z,9.37
2018-11-01T19:43:57.881Z,9.13
2018-11-01T19:46:26.186Z,7.77
2018-11-01T19:48:54.404Z,8.67
2018-11-01T19:51:22.755Z,11.10
2018-11-01T19:53:50.955Z,10.43
2018-11-01T19:56:19.233Z,9.33
2018-11-01T19:58:47.482Z,10.43
2018-11-01T20:01:15.743Z,8.70
2018-11-01T20:03:43.880Z,9.53
2018-11-01T20:06:12.138Z,9.07
2018-11-01T20:08:40.349Z,9.37
2018-11-01T20:11:08.542Z,10.73
2018-11-01T20:13:36.751Z,8.53
2018-11-01T20:16:05.017Z,9.23
2018-11-01T20:18:33.561Z,7.73
2018-11-01T20:21:01.867Z,8.73
2018-11-01T20:23:30.131Z,11.63
2018-11-01T20:25:58.358Z,16.27
2018-11-01T20:28:26.600Z,9.50
2018-11-01T20:30:54.811Z,9.17
2018-11-01T20:33:23.125Z,8.27
2018-11-01T20:35:51.299Z,8.63
2018-11-01T20:38:19.596Z,10.20
2018-11-01T20:40:47.798Z,10.40
2018-11-01T20:43:16.051Z,9.90
2018-11-01T20:45:44.328Z,8.97
2018-11-01T20:48:12.604Z,8.47
2018-11-01T20:50:40.900Z,10.33
2018-11-01T20:53:09.132Z,10.47
2018-11-01T20:55:37.263Z,10.47
2018-11-01T20:58:05.915Z,10.77
2018-11-01T21:00:34.139Z,10.57
2018-11-01T21:03:02.457Z,11.97
2018-11-01T21:05:30.723Z,9.03
2018-11-01T21:07:58.888Z,10.17
2018-11-01T21:10:27.068Z,10.17
2018-11-01T21:12:56.638Z,11.83
2018-11-01T21:15:25.251Z,12.93
2018-11-01T21:17:53.493Z,10.83
2018-11-01T21:20:21.662Z,11.10
2018-11-01T21:22:49.844Z,9.03
2018-11-01T21:25:17.983Z,9.57
2018-11-01T21:27:46.172Z,9.57
2018-11-01T21:30:14.284Z,11.03
2018-11-01T21:32:42.467Z,10.93
2018-11-01T21:35:10.658Z,12.03
2018-11-01T21:37:38.695Z,11.17
2018-11-01T21:40:07.602Z,12.80
2018-11-01T21:42:36.160Z,12.27
2018-11-01T21:45:05.277Z,11.17
2018-11-01T21:47:33.395Z,11.33
2018-11-01T21:50:01.507Z,12.37
2018-11-01T21:52:29.673Z,11.93
2018-11-01T21:54:57.804Z,13.97
2018-11-01T21:57:25.991Z,14.73
2018-11-01T21:59:54.169Z,13.70
2018-11-01T22:02:22.316Z,15.47
2018-11-01T22:04:50.471Z,13.73
2018-11-01T22:07:18.615Z,15.27
2018-11-01T22:09:46.837Z,11.87
2018-11-01T22:12:14.937Z,10.67
2018-11-01T22:14:43.083Z,14.90
2018-11-01T22:17:11.225Z,12.87
2018-11-01T22:19:39.360Z,14.73
2018-11-01T22:22:07.503Z,12.30
2018-11-01T22:24:35.613Z,14.53
2018-11-01T22:27:03.753Z,14.30
2018-11-01T22:29:31.884Z,12.93
2018-11-01T22:32:00.021Z,10.90
2018-11-01T22:34:28.216Z,13.27
2018-11-01T22:36:56.325Z,11.63
2018-11-01T22:39:24.438Z,13.70
2018-11-01T22:41:52.573Z,12.53
2018-11-01T22:44:20.687Z,10.77
2018-11-01T22:46:48.824Z,15.07
2018-11-01T22:49:16.983Z,15.47
2018-11-01T22:51:45.079Z,14.00
2018-11-01T22:54:13.206Z,14.37
2018-11-01T22:56:41.379Z,16.20
2018-11-01T22:59:09.609Z,16.47
2018-11-01T23:01:37.864Z,16.20
2018-11-01T23:04:06.248Z,14.77
2018-11-01T23:06:34.385Z,12.43
2018-11-01T23:09:02.591Z,17.60
2018-11-01T23:11:30.741Z,18.97
2018-11-01T23:13:58.878Z,16.47
2018-11-01T23:16:27.052Z,19.10
2018-11-01T23:18:55.214Z,16.00
2018-11-01T23:21:23.342Z,17.33
2018-11-01T23:23:51.460Z,13.00
2018-11-01T23:26:19.692Z,14.33
2018-11-01T23:28:47.674Z,17.40
2018-11-01T23:31:15.875Z,16.10
2018-11-01T23:33:44.080Z,15.03
2018-11-01T23:36:11.557Z,14.47
2018-11-01T23:38:44.994Z,14.83
2018-11-01T23:41:18.609Z,17.83
2018-11-01T23:43:52.244Z,14.77
2018-11-01T23:46:25.908Z,14.77
2018-11-01T23:48:59.362Z,14.83
2018-11-01T23:51:27.539Z,17.43
2018-11-01T23:53:55.721Z,15.17
2018-11-01T23:56:23.894Z,15.03
2018-11-01T23:58:52.091Z,14.97
